sensor_id;sensor_type;location;lat;lon;timestamp;P1;durP1;ratioP1;P2;durP2;ratioP2
16242;SDS011;11719;51.052;6.982;2023-07-20T00:01:59;2.73;;;1.07;;
16242;SDS011;11719;51.052;6.982;2023-07-20T00:04:25;0.70;;;0.70;;
16242;SDS011;11719;51.052;6.982;2023-07-20T00:06:51;2.00;;;0.97;;
16242;SDS011;11719;51.052;6.982;2023-07-20T00:09:16;1.47;;;1.10;;
16242;SDS011;11719;51.052;6.982;2023-07-20T00:11:48;2.73;;;0.70;;
16242;SDS011;11719;51.052;6.982;2023-07-20T00:14:16;1.10;;;1.00;;
16242;SDS011;11719;51.052;6.982;2023-07-20T00:16:43;0.60;;;0.60;;
16242;SDS011;11719;51.052;6.982;2023-07-20T00:19:11;4.10;;;1.27;;
16242;SDS011;11719;51.052;6.982;2023-07-20T00:21:37;1.47;;;0.87;;
16242;SDS011;11719;51.052;6.982;2023-07-20T00:24:05;3.87;;;0.80;;
16242;SDS011;11719;51.052;6.982;2023-07-20T00:26:31;1.90;;;1.00;;
16242;SDS011;11719;51.052;6.982;2023-07-20T00:28:57;0.90;;;0.70;;
16242;SDS011;11719;51.052;6.982;2023-07-20T00:31:23;2.17;;;1.00;;
16242;SDS011;11719;51.052;6.982;2023-07-20T00:33:49;2.03;;;0.80;;
16242;SDS011;11719;51.052;6.982;2023-07-20T00:36:14;1.53;;;0.93;;
16242;SDS011;11719;51.052;6.982;2023-07-20T00:38:40;2.07;;;1.20;;
16242;SDS011;11719;51.052;6.982;2023-07-20T00:41:07;2.13;;;1.10;;
16242;SDS011;11719;51.052;6.982;2023-07-20T00:43:33;1.10;;;0.90;;
16242;SDS011;11719;51.052;6.982;2023-07-20T00:45:58;1.30;;;1.20;;
16242;SDS011;11719;51.052;6.982;2023-07-20T00:48:24;1.20;;;0.80;;
16242;SDS011;11719;51.052;6.982;2023-07-20T00:50:51;1.00;;;0.90;;
16242;SDS011;11719;51.052;6.982;2023-07-20T00:53:17;1.10;;;0.83;;
16242;SDS011;11719;51.052;6.982;2023-07-20T00:55:43;5.77;;;1.30;;
16242;SDS011;11719;51.052;6.982;2023-07-20T00:58:09;5.43;;;1.17;;
16242;SDS011;11719;51.052;6.982;2023-07-20T01:00:35;2.83;;;1.23;;
16242;SDS011;11719;51.052;6.982;2023-07-20T01:03:01;2.40;;;0.80;;
16242;SDS011;11719;51.052;6.982;2023-07-20T01:05:31;1.73;;;1.33;;
16242;SDS011;11719;51.052;6.982;2023-07-20T01:11:36;0.80;;;0.80;;
16242;SDS011;11719;51.052;6.982;2023-07-20T01:14:04;2.27;;;1.20;;
16242;SDS011;11719;51.052;6.982;2023-07-20T01:16:31;0.93;;;0.70;;
16242;SDS011;11719;51.052;6.982;2023-07-20T01:18:58;1.30;;;1.10;;
16242;SDS011;11719;51.052;6.982;2023-07-20T01:21:34;1.43;;;1.00;;
16242;SDS011;11719;51.052;6.982;2023-07-20T01:27:26;3.10;;;1.23;;
16242;SDS011;11719;51.052;6.982;2023-07-20T01:30:23;2.80;;;0.80;;
16242;SDS011;11719;51.052;6.982;2023-07-20T01:33:13;2.60;;;1.40;;
16242;SDS011;11719;51.052;6.982;2023-07-20T01:35:41;1.57;;;1.10;;
16242;SDS011;11719;51.052;6.982;2023-07-20T01:38:09;1.33;;;0.90;;
16242;SDS011;11719;51.052;6.982;2023-07-20T01:40:37;1.70;;;1.43;;
16242;SDS011;11719;51.052;6.982;2023-07-20T01:43:04;1.90;;;1.03;;
16242;SDS011;11719;51.052;6.982;2023-07-20T01:45:30;2.60;;;1.33;;
16242;SDS011;11719;51.052;6.982;2023-07-20T01:47:56;3.83;;;1.40;;
16242;SDS011;11719;51.052;6.982;2023-07-20T01:50:22;4.07;;;1.47;;
16242;SDS011;11719;51.052;6.982;2023-07-20T01:52:48;1.10;;;1.00;;
16242;SDS011;11719;51.052;6.982;2023-07-20T01:55:14;3.00;;;1.67;;
16242;SDS011;11719;51.052;6.982;2023-07-20T01:57:39;2.33;;;1.40;;
16242;SDS011;11719;51.052;6.982;2023-07-20T02:00:05;2.83;;;1.33;;
16242;SDS011;11719;51.052;6.982;2023-07-20T02:02:33;2.40;;;1.17;;
16242;SDS011;11719;51.052;6.982;2023-07-20T02:04:59;2.03;;;1.27;;
16242;SDS011;11719;51.052;6.982;2023-07-20T02:07:25;2.97;;;1.40;;
16242;SDS011;11719;51.052;6.982;2023-07-20T02:09:51;2.90;;;1.37;;
16242;SDS011;11719;51.052;6.982;2023-07-20T02:12:17;2.23;;;1.30;;
16242;SDS011;11719;51.052;6.982;2023-07-20T02:14:42;2.37;;;1.57;;
16242;SDS011;11719;51.052;6.982;2023-07-20T02:17:08;2.43;;;1.43;;
16242;SDS011;11719;51.052;6.982;2023-07-20T02:19:35;1.73;;;1.23;;
16242;SDS011;11719;51.052;6.982;2023-07-20T02:22:02;1.83;;;1.00;;
16242;SDS011;11719;51.052;6.982;2023-07-20T02:24:28;1.30;;;0.97;;
16242;SDS011;11719;51.052;6.982;2023-07-20T02:26:54;1.50;;;1.23;;
16242;SDS011;11719;51.052;6.982;2023-07-20T02:29:19;1.23;;;1.00;;
16242;SDS011;11719;51.052;6.982;2023-07-20T02:31:45;1.13;;;0.87;;
16242;SDS011;11719;51.052;6.982;2023-07-20T02:34:11;3.50;;;1.50;;
16242;SDS011;11719;51.052;6.982;2023-07-20T02:36:37;1.10;;;1.00;;
16242;SDS011;11719;51.052;6.982;2023-07-20T02:39:02;2.33;;;0.90;;
16242;SDS011;11719;51.052;6.982;2023-07-20T02:41:29;1.10;;;0.90;;
16242;SDS011;11719;51.052;6.982;2023-07-20T02:43:57;2.47;;;1.00;;
16242;SDS011;11719;51.052;6.982;2023-07-20T02:46:23;1.60;;;1.20;;
16242;SDS011;11719;51.052;6.982;2023-07-20T02:48:49;1.93;;;1.27;;
16242;SDS011;11719;51.052;6.982;2023-07-20T02:51:14;1.20;;;0.97;;
16242;SDS011;11719;51.052;6.982;2023-07-20T02:53:40;3.17;;;1.10;;
16242;SDS011;11719;51.052;6.982;2023-07-20T02:56:06;2.87;;;0.93;;
16242;SDS011;11719;51.052;6.982;2023-07-20T02:58:33;3.53;;;1.20;;
16242;SDS011;11719;51.052;6.982;2023-07-20T03:01:02;1.00;;;0.83;;
16242;SDS011;11719;51.052;6.982;2023-07-20T03:03:28;1.20;;;0.83;;
16242;SDS011;11719;51.052;6.982;2023-07-20T03:05:54;1.47;;;1.20;;
16242;SDS011;11719;51.052;6.982;2023-07-20T03:08:21;2.20;;;1.30;;
16242;SDS011;11719;51.052;6.982;2023-07-20T03:10:47;1.23;;;0.80;;
16242;SDS011;11719;51.052;6.982;2023-07-20T03:13:13;1.67;;;1.27;;
16242;SDS011;11719;51.052;6.982;2023-07-20T03:15:39;1.30;;;0.90;;
16242;SDS011;11719;51.052;6.982;2023-07-20T03:18:05;1.53;;;1.00;;
16242;SDS011;11719;51.052;6.982;2023-07-20T03:20:31;2.70;;;1.27;;
16242;SDS011;11719;51.052;6.982;2023-07-20T03:22:56;1.87;;;1.10;;
16242;SDS011;11719;51.052;6.982;2023-07-20T03:25:22;4.93;;;1.30;;
16242;SDS011;11719;51.052;6.982;2023-07-20T03:27:48;1.53;;;1.03;;
16242;SDS011;11719;51.052;6.982;2023-07-20T03:30:14;2.07;;;1.20;;
16242;SDS011;11719;51.052;6.982;2023-07-20T03:32:40;3.50;;;1.20;;
16242;SDS011;11719;51.052;6.982;2023-07-20T03:35:06;1.97;;;1.33;;
16242;SDS011;11719;51.052;6.982;2023-07-20T03:37:32;2.70;;;1.47;;
16242;SDS011;11719;51.052;6.982;2023-07-20T03:40:00;2.40;;;1.20;;
16242;SDS011;11719;51.052;6.982;2023-07-20T03:42:26;4.67;;;1.40;;
16242;SDS011;11719;51.052;6.982;2023-07-20T03:44:52;2.13;;;1.17;;
16242;SDS011;11719;51.052;6.982;2023-07-20T03:47:17;1.20;;;1.00;;
16242;SDS011;11719;51.052;6.982;2023-07-20T03:49:43;1.83;;;1.47;;
16242;SDS011;11719;51.052;6.982;2023-07-20T03:52:09;1.30;;;1.00;;
16242;SDS011;11719;51.052;6.982;2023-07-20T03:54:35;2.37;;;1.20;;
16242;SDS011;11719;51.052;6.982;2023-07-20T03:57:00;2.67;;;1.10;;
16242;SDS011;11719;51.052;6.982;2023-07-20T03:59:26;3.00;;;1.53;;
16242;SDS011;11719;51.052;6.982;2023-07-20T04:01:52;3.10;;;1.30;;
16242;SDS011;11719;51.052;6.982;2023-07-20T04:04:18;2.07;;;1.50;;
16242;SDS011;11719;51.052;6.982;2023-07-20T04:06:44;1.97;;;1.30;;
16242;SDS011;11719;51.052;6.982;2023-07-20T04:09:10;2.93;;;1.20;;
16242;SDS011;11719;51.052;6.982;2023-07-20T04:11:37;1.87;;;1.20;;
16242;SDS011;11719;51.052;6.982;2023-07-20T04:14:03;2.00;;;0.90;;
16242;SDS011;11719;51.052;6.982;2023-07-20T04:16:29;4.23;;;1.50;;
16242;SDS011;11719;51.052;6.982;2023-07-20T04:18:55;2.43;;;1.20;;
16242;SDS011;11719;51.052;6.982;2023-07-20T04:21:22;3.53;;;1.63;;
16242;SDS011;11719;51.052;6.982;2023-07-20T04:23:48;1.63;;;1.07;;
16242;SDS011;11719;51.052;6.982;2023-07-20T04:26:13;3.13;;;1.43;;
16242;SDS011;11719;51.052;6.982;2023-07-20T04:28:40;1.97;;;1.43;;
16242;SDS011;11719;51.052;6.982;2023-07-20T04:31:14;2.17;;;1.17;;
16242;SDS011;11719;51.052;6.982;2023-07-20T04:33:41;2.13;;;1.20;;
16242;SDS011;11719;51.052;6.982;2023-07-20T04:36:07;2.13;;;1.10;;
16242;SDS011;11719;51.052;6.982;2023-07-20T04:38:33;2.93;;;1.00;;
16242;SDS011;11719;51.052;6.982;2023-07-20T04:40:59;2.50;;;1.20;;
16242;SDS011;11719;51.052;6.982;2023-07-20T04:43:25;2.63;;;1.00;;
16242;SDS011;11719;51.052;6.982;2023-07-20T04:45:54;2.20;;;1.10;;
16242;SDS011;11719;51.052;6.982;2023-07-20T04:48:19;2.67;;;1.53;;
16242;SDS011;11719;51.052;6.982;2023-07-20T04:50:45;2.87;;;1.50;;
16242;SDS011;11719;51.052;6.982;2023-07-20T04:53:17;1.80;;;1.37;;
16242;SDS011;11719;51.052;6.982;2023-07-20T04:55:49;3.70;;;1.50;;
16242;SDS011;11719;51.052;6.982;2023-07-20T04:58:16;2.67;;;1.40;;
16242;SDS011;11719;51.052;6.982;2023-07-20T05:00:44;3.07;;;1.40;;
16242;SDS011;11719;51.052;6.982;2023-07-20T05:03:09;3.00;;;1.50;;
16242;SDS011;11719;51.052;6.982;2023-07-20T05:05:35;4.40;;;1.70;;
16242;SDS011;11719;51.052;6.982;2023-07-20T05:08:01;3.23;;;1.43;;
16242;SDS011;11719;51.052;6.982;2023-07-20T05:10:29;3.10;;;1.13;;
16242;SDS011;11719;51.052;6.982;2023-07-20T05:12:54;2.73;;;1.57;;
16242;SDS011;11719;51.052;6.982;2023-07-20T05:15:20;2.70;;;1.67;;
16242;SDS011;11719;51.052;6.982;2023-07-20T05:17:46;2.53;;;1.40;;
16242;SDS011;11719;51.052;6.982;2023-07-20T05:20:13;3.83;;;1.80;;
16242;SDS011;11719;51.052;6.982;2023-07-20T05:22:39;2.37;;;1.30;;
16242;SDS011;11719;51.052;6.982;2023-07-20T05:25:06;3.77;;;2.27;;
16242;SDS011;11719;51.052;6.982;2023-07-20T05:27:33;4.77;;;2.10;;
16242;SDS011;11719;51.052;6.982;2023-07-20T05:30:01;4.17;;;2.07;;
16242;SDS011;11719;51.052;6.982;2023-07-20T05:32:27;8.13;;;2.33;;
16242;SDS011;11719;51.052;6.982;2023-07-20T05:34:53;5.53;;;2.60;;
16242;SDS011;11719;51.052;6.982;2023-07-20T05:37:20;11.07;;;2.93;;
16242;SDS011;11719;51.052;6.982;2023-07-20T05:39:46;5.13;;;2.37;;
16242;SDS011;11719;51.052;6.982;2023-07-20T05:42:12;4.33;;;2.50;;
16242;SDS011;11719;51.052;6.982;2023-07-20T05:44:38;3.23;;;2.23;;
16242;SDS011;11719;51.052;6.982;2023-07-20T05:47:04;4.33;;;2.70;;
16242;SDS011;11719;51.052;6.982;2023-07-20T05:49:31;4.03;;;2.60;;
16242;SDS011;11719;51.052;6.982;2023-07-20T05:51:57;4.53;;;2.50;;
16242;SDS011;11719;51.052;6.982;2023-07-20T05:54:25;5.57;;;3.00;;
16242;SDS011;11719;51.052;6.982;2023-07-20T05:56:51;6.13;;;3.07;;
16242;SDS011;11719;51.052;6.982;2023-07-20T05:59:18;5.80;;;1.73;;
16242;SDS011;11719;51.052;6.982;2023-07-20T06:01:45;5.67;;;3.93;;
16242;SDS011;11719;51.052;6.982;2023-07-20T06:04:13;5.67;;;3.60;;
16242;SDS011;11719;51.052;6.982;2023-07-20T06:06:39;6.23;;;3.87;;
16242;SDS011;11719;51.052;6.982;2023-07-20T06:09:05;9.80;;;3.83;;
16242;SDS011;11719;51.052;6.982;2023-07-20T06:11:35;6.80;;;4.17;;
16242;SDS011;11719;51.052;6.982;2023-07-20T06:14:01;5.67;;;3.60;;
16242;SDS011;11719;51.052;6.982;2023-07-20T06:16:27;10.37;;;4.40;;
16242;SDS011;11719;51.052;6.982;2023-07-20T06:18:52;8.27;;;4.60;;
16242;SDS011;11719;51.052;6.982;2023-07-20T06:21:18;5.73;;;3.97;;
16242;SDS011;11719;51.052;6.982;2023-07-20T06:23:44;9.20;;;4.67;;
16242;SDS011;11719;51.052;6.982;2023-07-20T06:26:11;8.23;;;4.13;;
16242;SDS011;11719;51.052;6.982;2023-07-20T06:28:36;7.47;;;4.57;;
16242;SDS011;11719;51.052;6.982;2023-07-20T06:31:02;9.10;;;4.53;;
16242;SDS011;11719;51.052;6.982;2023-07-20T06:33:29;6.77;;;4.07;;
16242;SDS011;11719;51.052;6.982;2023-07-20T06:35:55;8.23;;;4.90;;
16242;SDS011;11719;51.052;6.982;2023-07-20T06:38:22;8.83;;;5.00;;
16242;SDS011;11719;51.052;6.982;2023-07-20T06:40:48;7.00;;;4.77;;
16242;SDS011;11719;51.052;6.982;2023-07-20T06:43:15;7.27;;;5.20;;
16242;SDS011;11719;51.052;6.982;2023-07-20T06:45:41;7.63;;;5.63;;
16242;SDS011;11719;51.052;6.982;2023-07-20T06:48:07;7.23;;;4.83;;
16242;SDS011;11719;51.052;6.982;2023-07-20T06:50:33;5.93;;;3.80;;
16242;SDS011;11719;51.052;6.982;2023-07-20T06:52:59;10.93;;;4.33;;
16242;SDS011;11719;51.052;6.982;2023-07-20T06:55:26;8.87;;;4.30;;
16242;SDS011;11719;51.052;6.982;2023-07-20T06:57:51;8.07;;;5.07;;
16242;SDS011;11719;51.052;6.982;2023-07-20T07:00:17;8.97;;;5.10;;
16242;SDS011;11719;51.052;6.982;2023-07-20T07:02:44;7.67;;;4.93;;
16242;SDS011;11719;51.052;6.982;2023-07-20T07:05:09;7.90;;;5.47;;
16242;SDS011;11719;51.052;6.982;2023-07-20T07:07:35;8.20;;;4.73;;
16242;SDS011;11719;51.052;6.982;2023-07-20T07:10:01;7.90;;;4.17;;
16242;SDS011;11719;51.052;6.982;2023-07-20T07:12:30;9.67;;;4.37;;
16242;SDS011;11719;51.052;6.982;2023-07-20T07:14:56;6.87;;;4.10;;
16242;SDS011;11719;51.052;6.982;2023-07-20T07:17:22;6.00;;;4.47;;
16242;SDS011;11719;51.052;6.982;2023-07-20T07:19:47;8.93;;;4.93;;
16242;SDS011;11719;51.052;6.982;2023-07-20T07:22:13;6.77;;;4.10;;
16242;SDS011;11719;51.052;6.982;2023-07-20T07:24:39;6.23;;;3.97;;
16242;SDS011;11719;51.052;6.982;2023-07-20T07:27:08;7.73;;;4.83;;
16242;SDS011;11719;51.052;6.982;2023-07-20T07:29:34;5.60;;;4.23;;
16242;SDS011;11719;51.052;6.982;2023-07-20T07:32:00;10.23;;;4.40;;
16242;SDS011;11719;51.052;6.982;2023-07-20T07:34:26;6.67;;;4.97;;
16242;SDS011;11719;51.052;6.982;2023-07-20T07:36:52;7.77;;;4.80;;
16242;SDS011;11719;51.052;6.982;2023-07-20T07:39:18;5.93;;;4.37;;
16242;SDS011;11719;51.052;6.982;2023-07-20T07:41:44;4.00;;;2.63;;
16242;SDS011;11719;51.052;6.982;2023-07-20T07:44:10;6.80;;;4.53;;
16242;SDS011;11719;51.052;6.982;2023-07-20T07:46:36;5.03;;;3.50;;
16242;SDS011;11719;51.052;6.982;2023-07-20T07:49:02;5.47;;;3.70;;
16242;SDS011;11719;51.052;6.982;2023-07-20T07:51:28;4.93;;;3.33;;
16242;SDS011;11719;51.052;6.982;2023-07-20T07:53:54;3.63;;;2.50;;
16242;SDS011;11719;51.052;6.982;2023-07-20T07:56:20;4.33;;;3.07;;
16242;SDS011;11719;51.052;6.982;2023-07-20T07:58:49;3.20;;;2.47;;
16242;SDS011;11719;51.052;6.982;2023-07-20T08:01:16;4.63;;;3.00;;
16242;SDS011;11719;51.052;6.982;2023-07-20T08:03:44;3.10;;;2.33;;
16242;SDS011;11719;51.052;6.982;2023-07-20T08:06:12;2.53;;;2.30;;
16242;SDS011;11719;51.052;6.982;2023-07-20T08:08:39;3.70;;;2.80;;
16242;SDS011;11719;51.052;6.982;2023-07-20T08:11:04;3.67;;;2.60;;
16242;SDS011;11719;51.052;6.982;2023-07-20T08:13:30;5.00;;;2.90;;
16242;SDS011;11719;51.052;6.982;2023-07-20T08:15:57;4.77;;;2.80;;
16242;SDS011;11719;51.052;6.982;2023-07-20T08:18:23;5.67;;;2.83;;
16242;SDS011;11719;51.052;6.982;2023-07-20T08:20:49;3.97;;;2.40;;
16242;SDS011;11719;51.052;6.982;2023-07-20T08:23:15;3.77;;;2.33;;
16242;SDS011;11719;51.052;6.982;2023-07-20T08:25:41;4.40;;;1.83;;
16242;SDS011;11719;51.052;6.982;2023-07-20T08:28:15;3.10;;;1.97;;
16242;SDS011;11719;51.052;6.982;2023-07-20T08:30:42;2.73;;;1.00;;
16242;SDS011;11719;51.052;6.982;2023-07-20T08:33:15;1.73;;;1.33;;
16242;SDS011;11719;51.052;6.982;2023-07-20T08:35:46;2.03;;;1.27;;
16242;SDS011;11719;51.052;6.982;2023-07-20T08:38:12;1.87;;;1.10;;
16242;SDS011;11719;51.052;6.982;2023-07-20T08:40:42;2.00;;;1.40;;
16242;SDS011;11719;51.052;6.982;2023-07-20T08:43:10;3.17;;;0.70;;
16242;SDS011;11719;51.052;6.982;2023-07-20T08:45:38;1.60;;;0.80;;
16242;SDS011;11719;51.052;6.982;2023-07-20T08:48:05;0.50;;;0.50;;
16242;SDS011;11719;51.052;6.982;2023-07-20T08:50:33;1.20;;;0.73;;
16242;SDS011;11719;51.052;6.982;2023-07-20T08:53:00;1.33;;;0.80;;
16242;SDS011;11719;51.052;6.982;2023-07-20T08:55:27;1.33;;;1.13;;
16242;SDS011;11719;51.052;6.982;2023-07-20T08:57:54;1.27;;;1.10;;
16242;SDS011;11719;51.052;6.982;2023-07-20T09:00:22;1.40;;;1.10;;
16242;SDS011;11719;51.052;6.982;2023-07-20T09:02:49;1.40;;;0.80;;
16242;SDS011;11719;51.052;6.982;2023-07-20T09:05:17;0.83;;;0.83;;
16242;SDS011;11719;51.052;6.982;2023-07-20T09:07:44;0.97;;;0.80;;
16242;SDS011;11719;51.052;6.982;2023-07-20T09:10:10;1.17;;;0.70;;
16242;SDS011;11719;51.052;6.982;2023-07-20T09:12:37;1.60;;;1.00;;
16242;SDS011;11719;51.052;6.982;2023-07-20T09:15:05;0.80;;;0.60;;
16242;SDS011;11719;51.052;6.982;2023-07-20T09:17:32;0.50;;;0.50;;
16242;SDS011;11719;51.052;6.982;2023-07-20T09:19:59;0.73;;;0.67;;
16242;SDS011;11719;51.052;6.982;2023-07-20T09:22:33;1.70;;;1.00;;
16242;SDS011;11719;51.052;6.982;2023-07-20T09:24:59;1.30;;;1.00;;
16242;SDS011;11719;51.052;6.982;2023-07-20T09:27:34;0.97;;;0.87;;
16242;SDS011;11719;51.052;6.982;2023-07-20T09:30:04;0.77;;;0.63;;
16242;SDS011;11719;51.052;6.982;2023-07-20T09:32:38;0.60;;;0.60;;
16242;SDS011;11719;51.052;6.982;2023-07-20T09:35:06;0.87;;;0.70;;
16242;SDS011;11719;51.052;6.982;2023-07-20T09:37:38;1.83;;;0.83;;
16242;SDS011;11719;51.052;6.982;2023-07-20T09:40:05;0.90;;;0.60;;
16242;SDS011;11719;51.052;6.982;2023-07-20T09:42:34;0.60;;;0.60;;
16242;SDS011;11719;51.052;6.982;2023-07-20T09:45:01;0.60;;;0.60;;
16242;SDS011;11719;51.052;6.982;2023-07-20T09:47:27;0.70;;;0.50;;
16242;SDS011;11719;51.052;6.982;2023-07-20T09:50:00;1.37;;;0.80;;
16242;SDS011;11719;51.052;6.982;2023-07-20T09:52:26;0.60;;;0.60;;
16242;SDS011;11719;51.052;6.982;2023-07-20T09:54:52;0.73;;;0.57;;
16242;SDS011;11719;51.052;6.982;2023-07-20T09:57:19;5.77;;;1.40;;
16242;SDS011;11719;51.052;6.982;2023-07-20T09:59:46;0.83;;;0.60;;
16242;SDS011;11719;51.052;6.982;2023-07-20T10:02:23;0.43;;;0.43;;
16242;SDS011;11719;51.052;6.982;2023-07-20T10:04:58;2.23;;;0.50;;
16242;SDS011;11719;51.052;6.982;2023-07-20T10:07:30;0.70;;;0.60;;
16242;SDS011;11719;51.052;6.982;2023-07-20T10:09:56;0.90;;;0.50;;
16242;SDS011;11719;51.052;6.982;2023-07-20T10:12:25;1.00;;;0.60;;
16242;SDS011;11719;51.052;6.982;2023-07-20T10:14:53;0.53;;;0.47;;
16242;SDS011;11719;51.052;6.982;2023-07-20T10:17:34;0.40;;;0.40;;
16242;SDS011;11719;51.052;6.982;2023-07-20T10:20:02;0.40;;;0.37;;
16242;SDS011;11719;51.052;6.982;2023-07-20T10:22:31;0.50;;;0.40;;
16242;SDS011;11719;51.052;6.982;2023-07-20T10:25:01;1.00;;;0.50;;
16242;SDS011;11719;51.052;6.982;2023-07-20T10:27:27;0.30;;;0.30;;
16242;SDS011;11719;51.052;6.982;2023-07-20T10:29:53;0.63;;;0.40;;
16242;SDS011;11719;51.052;6.982;2023-07-20T10:32:20;0.80;;;0.50;;
16242;SDS011;11719;51.052;6.982;2023-07-20T10:34:50;0.60;;;0.37;;
16242;SDS011;11719;51.052;6.982;2023-07-20T10:43:11;0.60;;;0.53;;
16242;SDS011;11719;51.052;6.982;2023-07-20T10:45:47;0.70;;;0.60;;
16242;SDS011;11719;51.052;6.982;2023-07-20T10:53:45;1.83;;;0.50;;
16242;SDS011;11719;51.052;6.982;2023-07-20T10:56:14;2.10;;;0.50;;
16242;SDS011;11719;51.052;6.982;2023-07-20T10:58:45;0.50;;;0.40;;
16242;SDS011;11719;51.052;6.982;2023-07-20T11:01:14;0.43;;;0.43;;
16242;SDS011;11719;51.052;6.982;2023-07-20T11:03:42;0.30;;;0.20;;
16242;SDS011;11719;51.052;6.982;2023-07-20T11:09:12;1.27;;;0.50;;
16242;SDS011;11719;51.052;6.982;2023-07-20T11:11:43;1.65;;;0.38;;
16242;SDS011;11719;51.052;6.982;2023-07-20T11:14:30;1.00;;;0.30;;
16242;SDS011;11719;51.052;6.982;2023-07-20T11:16:59;1.10;;;0.45;;
16242;SDS011;11719;51.052;6.982;2023-07-20T11:19:39;0.40;;;0.40;;
16242;SDS011;11719;51.052;6.982;2023-07-20T11:22:06;0.80;;;0.50;;
16242;SDS011;11719;51.052;6.982;2023-07-20T11:24:41;4.07;;;0.32;;
16242;SDS011;11719;51.052;6.982;2023-07-20T11:27:07;0.30;;;0.30;;
16242;SDS011;11719;51.052;6.982;2023-07-20T11:29:34;0.68;;;0.40;;
16242;SDS011;11719;51.052;6.982;2023-07-20T11:32:01;0.40;;;0.30;;
16242;SDS011;11719;51.052;6.982;2023-07-20T11:34:29;0.93;;;0.47;;
16242;SDS011;11719;51.052;6.982;2023-07-20T11:36:56;0.40;;;0.30;;
16242;SDS011;11719;51.052;6.982;2023-07-20T11:39:23;0.55;;;0.38;;
16242;SDS011;11719;51.052;6.982;2023-07-20T11:41:52;0.15;;;0.15;;
16242;SDS011;11719;51.052;6.982;2023-07-20T11:44:20;2.08;;;0.47;;
16242;SDS011;11719;51.052;6.982;2023-07-20T11:47:00;1.23;;;0.45;;
16242;SDS011;11719;51.052;6.982;2023-07-20T11:49:41;1.67;;;0.50;;
16242;SDS011;11719;51.052;6.982;2023-07-20T11:52:15;0.70;;;0.50;;
16242;SDS011;11719;51.052;6.982;2023-07-20T11:54:42;0.22;;;0.20;;
16242;SDS011;11719;51.052;6.982;2023-07-20T11:57:18;0.20;;;0.20;;
16242;SDS011;11719;51.052;6.982;2023-07-20T11:59:54;0.90;;;0.43;;
16242;SDS011;11719;51.052;6.982;2023-07-20T12:02:26;0.27;;;0.20;;
16242;SDS011;11719;51.052;6.982;2023-07-20T12:04:56;0.20;;;0.20;;
16242;SDS011;11719;51.052;6.982;2023-07-20T12:07:23;0.37;;;0.20;;
16242;SDS011;11719;51.052;6.982;2023-07-20T12:12:34;0.50;;;0.33;;
16242;SDS011;11719;51.052;6.982;2023-07-20T12:17:50;0.53;;;0.40;;
16242;SDS011;11719;51.052;6.982;2023-07-20T12:23:03;0.43;;;0.22;;
16242;SDS011;11719;51.052;6.982;2023-07-20T12:25:37;1.30;;;0.40;;
16242;SDS011;11719;51.052;6.982;2023-07-20T12:28:08;0.30;;;0.30;;
16242;SDS011;11719;51.052;6.982;2023-07-20T12:30:43;0.57;;;0.30;;
16242;SDS011;11719;51.052;6.982;2023-07-20T12:33:10;1.45;;;0.32;;
16242;SDS011;11719;51.052;6.982;2023-07-20T12:35:40;0.32;;;0.30;;
16242;SDS011;11719;51.052;6.982;2023-07-20T12:38:06;0.30;;;0.30;;
16242;SDS011;11719;51.052;6.982;2023-07-20T12:40:32;0.50;;;0.40;;
16242;SDS011;11719;51.052;6.982;2023-07-20T12:42:58;0.63;;;0.40;;
16242;SDS011;11719;51.052;6.982;2023-07-20T12:45:24;0.52;;;0.40;;
16242;SDS011;11719;51.052;6.982;2023-07-20T12:47:50;1.33;;;0.60;;
16242;SDS011;11719;51.052;6.982;2023-07-20T12:50:16;0.70;;;0.50;;
16242;SDS011;11719;51.052;6.982;2023-07-20T12:52:41;0.50;;;0.50;;
16242;SDS011;11719;51.052;6.982;2023-07-20T12:55:07;1.15;;;0.52;;
16242;SDS011;11719;51.052;6.982;2023-07-20T12:57:35;0.30;;;0.30;;
16242;SDS011;11719;51.052;6.982;2023-07-20T13:00:02;2.08;;;0.60;;
16242;SDS011;11719;51.052;6.982;2023-07-20T13:02:31;0.30;;;0.30;;
16242;SDS011;11719;51.052;6.982;2023-07-20T13:04:58;0.98;;;0.38;;
16242;SDS011;11719;51.052;6.982;2023-07-20T13:07:36;0.22;;;0.22;;
16242;SDS011;11719;51.052;6.982;2023-07-20T13:10:04;1.08;;;0.60;;
16242;SDS011;11719;51.052;6.982;2023-07-20T13:12:31;0.50;;;0.50;;
16242;SDS011;11719;51.052;6.982;2023-07-20T13:14:58;0.55;;;0.30;;
16242;SDS011;11719;51.052;6.982;2023-07-20T13:17:26;0.65;;;0.50;;
16242;SDS011;11719;51.052;6.982;2023-07-20T13:19:53;0.55;;;0.43;;
16242;SDS011;11719;51.052;6.982;2023-07-20T13:22:21;0.40;;;0.30;;
16242;SDS011;11719;51.052;6.982;2023-07-20T13:24:48;0.57;;;0.40;;
16242;SDS011;11719;51.052;6.982;2023-07-20T13:27:15;3.72;;;0.73;;
16242;SDS011;11719;51.052;6.982;2023-07-20T13:29:41;0.50;;;0.45;;
16242;SDS011;11719;51.052;6.982;2023-07-20T13:32:08;4.93;;;0.65;;
16242;SDS011;11719;51.052;6.982;2023-07-20T13:34:34;1.23;;;0.45;;
16242;SDS011;11719;51.052;6.982;2023-07-20T13:37:00;0.75;;;0.45;;
16242;SDS011;11719;51.052;6.982;2023-07-20T13:39:27;0.65;;;0.30;;
16242;SDS011;11719;51.052;6.982;2023-07-20T13:41:53;0.60;;;0.33;;
16242;SDS011;11719;51.052;6.982;2023-07-20T13:44:20;0.35;;;0.30;;
16242;SDS011;11719;51.052;6.982;2023-07-20T13:46:46;0.50;;;0.30;;
16242;SDS011;11719;51.052;6.982;2023-07-20T13:49:13;0.73;;;0.40;;
16242;SDS011;11719;51.052;6.982;2023-07-20T13:51:39;1.27;;;0.50;;
16242;SDS011;11719;51.052;6.982;2023-07-20T13:54:06;0.43;;;0.38;;
16242;SDS011;11719;51.052;6.982;2023-07-20T13:56:32;0.73;;;0.57;;
16242;SDS011;11719;51.052;6.982;2023-07-20T13:58:57;0.63;;;0.50;;
16242;SDS011;11719;51.052;6.982;2023-07-20T14:01:23;1.70;;;0.50;;
16242;SDS011;11719;51.052;6.982;2023-07-20T14:03:50;0.85;;;0.60;;
16242;SDS011;11719;51.052;6.982;2023-07-20T14:06:16;0.50;;;0.40;;
16242;SDS011;11719;51.052;6.982;2023-07-20T14:08:42;0.65;;;0.60;;
16242;SDS011;11719;51.052;6.982;2023-07-20T14:11:11;0.30;;;0.30;;
16242;SDS011;11719;51.052;6.982;2023-07-20T14:13:38;1.38;;;0.47;;
16242;SDS011;11719;51.052;6.982;2023-07-20T14:16:04;1.23;;;0.65;;
16242;SDS011;11719;51.052;6.982;2023-07-20T14:18:30;0.50;;;0.50;;
16242;SDS011;11719;51.052;6.982;2023-07-20T14:20:56;0.43;;;0.43;;
16242;SDS011;11719;51.052;6.982;2023-07-20T14:23:22;0.95;;;0.50;;
16242;SDS011;11719;51.052;6.982;2023-07-20T14:25:48;0.60;;;0.60;;
16242;SDS011;11719;51.052;6.982;2023-07-20T14:28:14;0.50;;;0.50;;
16242;SDS011;11719;51.052;6.982;2023-07-20T14:30:40;0.88;;;0.60;;
16242;SDS011;11719;51.052;6.982;2023-07-20T14:33:06;0.63;;;0.63;;
16242;SDS011;11719;51.052;6.982;2023-07-20T14:35:33;1.52;;;0.65;;
16242;SDS011;11719;51.052;6.982;2023-07-20T14:37:59;0.43;;;0.32;;
16242;SDS011;11719;51.052;6.982;2023-07-20T14:40:25;0.50;;;0.47;;
16242;SDS011;11719;51.052;6.982;2023-07-20T14:42:52;2.55;;;0.40;;
16242;SDS011;11719;51.052;6.982;2023-07-20T14:45:18;1.00;;;0.50;;
16242;SDS011;11719;51.052;6.982;2023-07-20T14:47:44;0.38;;;0.38;;
16242;SDS011;11719;51.052;6.982;2023-07-20T14:50:10;1.15;;;0.60;;
16242;SDS011;11719;51.052;6.982;2023-07-20T14:52:36;0.73;;;0.40;;
16242;SDS011;11719;51.052;6.982;2023-07-20T14:55:02;0.88;;;0.40;;
16242;SDS011;11719;51.052;6.982;2023-07-20T14:57:29;0.60;;;0.40;;
16242;SDS011;11719;51.052;6.982;2023-07-20T14:59:55;0.50;;;0.50;;
16242;SDS011;11719;51.052;6.982;2023-07-20T15:02:21;0.32;;;0.32;;
16242;SDS011;11719;51.052;6.982;2023-07-20T15:04:50;0.40;;;0.40;;
16242;SDS011;11719;51.052;6.982;2023-07-20T15:07:17;0.43;;;0.40;;
16242;SDS011;11719;51.052;6.982;2023-07-20T15:09:45;0.55;;;0.35;;
16242;SDS011;11719;51.052;6.982;2023-07-20T15:12:11;0.52;;;0.43;;
16242;SDS011;11719;51.052;6.982;2023-07-20T15:14:40;0.68;;;0.50;;
16242;SDS011;11719;51.052;6.982;2023-07-20T15:17:07;0.68;;;0.40;;
16242;SDS011;11719;51.052;6.982;2023-07-20T15:19:34;0.30;;;0.30;;